Time;durP1;ratioP1;P1;durP2;ratioP2;P2;SDS_P1;SDS_P2;PMS_P1;PMS_P2;Temp;Humidity;BMP_temperature;BMP_pressure;BME280_temperature;BME280_humidity;BME280_pressure;Samples;Min_cycle;Max_cycle;Signal;HPM_P1;HPM_P2
2023/09/28 00:02:22;;;;;;;3.35;2.90;;;21.60;99.90;;;;;;4995121;28;20502;-67
2023/09/28 00:04:48;;;;;;;3.88;2.75;;;21.50;99.90;;;;;;4995083;28;20053;-73
2023/09/28 00:07:14;;;;;;;9.10;3.20;;;21.50;99.90;;;;;;4995366;28;20030;-67
2023/09/28 00:09:40;;;;;;;7.57;3.45;;;21.50;99.90;;;;;;4995407;28;20348;-67
2023/09/28 00:12:06;;;;;;;4.00;3.30;;;21.50;99.90;;;;;;4995178;28;20097;-67
2023/09/28 00:14:31;;;;;;;6.00;2.95;;;21.50;99.90;;;;;;4995271;28;20069;-67
2023/09/28 00:16:57;;;;;;;5.57;2.88;;;21.40;99.90;;;;;;4994863;28;20022;-67
2023/09/28 00:19:24;;;;;;;4.65;3.25;;;21.40;99.90;;;;;;4995473;28;20041;-67
2023/09/28 00:21:50;;;;;;;6.30;3.53;;;21.50;99.90;;;;;;5006098;28;20018;-67
2023/09/28 00:24:16;;;;;;;6.45;3.10;;;21.40;99.90;;;;;;5013789;28;20026;-68
2023/09/28 00:26:42;;;;;;;6.75;3.42;;;21.40;99.90;;;;;;5011920;28;20442;-67
2023/09/28 00:29:07;;;;;;;4.50;3.35;;;21.40;99.90;;;;;;5013478;28;20468;-67
2023/09/28 00:31:33;;;;;;;8.70;3.65;;;21.40;99.90;;;;;;5014011;28;20021;-67
2023/09/28 00:33:59;;;;;;;7.00;3.60;;;21.40;99.90;;;;;;5014015;28;20044;-67
2023/09/28 00:36:25;;;;;;;7.20;3.40;;;21.40;99.90;;;;;;5013023;28;20026;-67
2023/09/28 00:38:50;;;;;;;8.35;3.80;;;21.40;99.90;;;;;;5014184;28;20033;-67
2023/09/28 00:41:16;;;;;;;4.07;3.25;;;21.40;99.90;;;;;;5014501;28;20022;-67
2023/09/28 00:43:42;;;;;;;5.32;3.50;;;21.30;99.90;;;;;;5014131;28;20076;-67
2023/09/28 00:46:13;;;;;;;7.97;3.85;;;21.30;99.90;;;;;;5014051;28;20357;-68
2023/09/28 00:49:10;;;;;;;7.90;4.10;;;21.30;99.90;;;;;;5013951;28;20018;-67
2023/09/28 00:51:39;;;;;;;8.25;3.67;;;21.30;99.90;;;;;;5012160;28;20046;-67
2023/09/28 00:54:06;;;;;;;5.80;3.80;;;21.30;99.90;;;;;;5013868;28;20040;-68
2023/09/28 00:56:32;;;;;;;7.88;3.53;;;21.30;99.90;;;;;;5014185;28;20022;-67
2023/09/28 00:58:59;;;;;;;5.00;3.50;;;21.20;99.90;;;;;;5013709;28;20535;-67
2023/09/28 01:01:31;;;;;;;5.68;3.55;;;21.20;99.90;;;;;;5013635;28;20048;-67
2023/09/28 01:04:00;;;;;;;4.45;3.70;;;21.20;99.90;;;;;;5013742;28;20029;-67
2023/09/28 01:06:26;;;;;;;7.20;3.58;;;21.20;99.90;;;;;;5013819;28;20482;-67
2023/09/28 01:08:52;;;;;;;6.00;3.60;;;21.20;99.90;;;;;;5013576;28;20068;-69
2023/09/28 01:11:20;;;;;;;6.65;3.63;;;21.20;99.90;;;;;;5013894;28;20467;-68
2023/09/28 01:13:46;;;;;;;6.68;3.85;;;21.20;99.90;;;;;;5013772;28;20076;-67
2023/09/28 01:16:13;;;;;;;7.93;4.18;;;21.20;99.90;;;;;;5013406;28;20499;-67
2023/09/28 01:18:38;;;;;;;7.32;3.95;;;21.20;99.90;;;;;;5014000;28;20095;-67
2023/09/28 01:21:06;;;;;;;5.43;3.78;;;21.10;99.90;;;;;;5013506;28;20546;-67
2023/09/28 01:23:32;;;;;;;6.28;4.00;;;21.10;99.90;;;;;;5013753;28;20052;-67
2023/09/28 01:25:58;;;;;;;5.30;3.47;;;21.10;99.90;;;;;;5013343;28;20467;-67
2023/09/28 01:28:24;;;;;;;5.38;3.63;;;21.10;99.90;;;;;;5013632;28;20033;-67
2023/09/28 01:30:50;;;;;;;5.72;3.40;;;21.10;99.90;;;;;;5013075;28;20018;-68
2023/09/28 01:33:16;;;;;;;6.35;4.00;;;21.10;99.90;;;;;;5013476;28;20026;-73
2023/09/28 01:35:41;;;;;;;5.32;4.05;;;21.10;99.90;;;;;;5013073;28;20471;-72
2023/09/28 01:38:40;;;;;;;7.40;4.10;;;21.10;99.90;;;;;;5013446;28;20539;-67
2023/09/28 01:41:07;;;;;;;7.47;3.65;;;21.00;99.90;;;;;;5013248;28;20025;-69
2023/09/28 01:43:32;;;;;;;8.35;4.07;;;21.10;99.90;;;;;;5013532;28;20452;-74
2023/09/28 01:45:58;;;;;;;6.53;4.03;;;21.00;99.90;;;;;;5012831;28;20106;-71
2023/09/28 01:48:23;;;;;;;8.07;4.18;;;21.00;99.90;;;;;;5013417;28;20022;-68
2023/09/28 01:50:49;;;;;;;6.18;3.50;;;21.00;99.90;;;;;;5013249;28;20542;-67
2023/09/28 01:53:14;;;;;;;9.32;3.80;;;21.10;99.90;;;;;;5013204;28;20029;-67
2023/09/28 01:55:40;;;;;;;6.78;4.00;;;21.00;99.90;;;;;;5013168;28;20084;-68
2023/09/28 01:58:07;;;;;;;9.35;4.00;;;21.00;99.90;;;;;;5012963;28;20072;-67
2023/09/28 02:00:34;;;;;;;6.28;4.13;;;21.00;99.90;;;;;;5013008;28;20022;-68
2023/09/28 02:03:02;;;;;;;6.63;3.72;;;21.00;99.90;;;;;;5013222;28;20014;-67
2023/09/28 02:05:32;;;;;;;9.50;4.38;;;21.00;99.90;;;;;;5012792;28;20117;-70
2023/09/28 02:07:58;;;;;;;6.03;4.32;;;21.00;99.90;;;;;;5013212;28;20108;-72
2023/09/28 02:10:24;;;;;;;6.45;4.75;;;21.00;99.90;;;;;;5013014;28;20022;-67
2023/09/28 02:12:50;;;;;;;6.97;4.38;;;21.00;99.90;;;;;;5012845;28;20026;-67
2023/09/28 02:15:16;;;;;;;7.72;3.70;;;21.00;99.90;;;;;;5012754;28;20391;-67
2023/09/28 02:17:45;;;;;;;7.38;4.13;;;21.00;99.90;;;;;;5013271;28;20015;-67
2023/09/28 02:20:16;;;;;;;6.55;4.00;;;21.00;99.90;;;;;;5013635;28;20037;-67
2023/09/28 02:22:46;;;;;;;8.07;3.90;;;21.00;99.90;;;;;;5016906;28;20041;-67
2023/09/28 02:25:17;;;;;;;8.25;4.55;;;21.00;99.90;;;;;;5016968;28;20026;-67
2023/09/28 02:27:44;;;;;;;6.38;3.95;;;21.00;99.90;;;;;;5016680;28;20036;-67
2023/09/28 02:30:17;;;;;;;6.53;4.10;;;21.00;99.90;;;;;;5016662;28;20049;-67
2023/09/28 02:32:43;;;;;;;5.03;3.65;;;21.00;99.90;;;;;;5016529;28;20049;-67
2023/09/28 02:35:11;;;;;;;6.80;3.80;;;20.90;99.90;;;;;;5016347;28;20041;-67
2023/09/28 02:37:37;;;;;;;7.30;4.07;;;20.90;99.90;;;;;;5016532;28;20375;-67
2023/09/28 02:40:06;;;;;;;6.50;3.42;;;20.90;99.90;;;;;;5016695;28;20093;-67
2023/09/28 02:42:33;;;;;;;6.85;3.75;;;20.90;99.90;;;;;;5016260;28;20096;-67
2023/09/28 02:44:59;;;;;;;7.47;3.17;;;20.90;99.90;;;;;;5016463;28;20579;-67
2023/09/28 02:47:26;;;;;;;5.78;2.70;;;20.90;99.90;;;;;;5016336;28;20054;-67
2023/09/28 02:49:52;;;;;;;7.80;3.05;;;20.90;99.90;;;;;;5016225;28;20053;-67
2023/09/28 02:52:18;;;;;;;10.80;3.40;;;20.90;99.90;;;;;;5016446;28;20483;-67
2023/09/28 02:54:44;;;;;;;8.00;3.00;;;20.90;99.90;;;;;;5016186;28;20033;-67
2023/09/28 02:57:10;;;;;;;11.25;3.20;;;20.90;99.90;;;;;;5015884;28;20018;-67
2023/09/28 02:59:36;;;;;;;7.20;2.78;;;20.90;99.90;;;;;;5016372;28;20033;-67
2023/09/28 03:02:03;;;;;;;8.75;3.00;;;20.90;99.90;;;;;;5015988;28;20026;-67
2023/09/28 03:04:31;;;;;;;9.93;3.00;;;20.90;99.90;;;;;;5015889;28;20045;-67
2023/09/28 03:06:57;;;;;;;11.15;3.35;;;20.90;99.90;;;;;;5015942;28;20118;-69
2023/09/28 03:09:23;;;;;;;9.88;3.20;;;20.90;99.90;;;;;;5014708;28;20028;-67
2023/09/28 03:11:49;;;;;;;11.32;4.05;;;20.80;99.90;;;;;;5015739;28;20112;-67
2023/09/28 03:14:14;;;;;;;12.10;3.15;;;20.80;99.90;;;;;;5015875;28;20037;-67
2023/09/28 03:16:40;;;;;;;10.75;3.25;;;20.90;99.90;;;;;;5015875;28;20018;-68
2023/09/28 03:19:06;;;;;;;13.63;3.35;;;20.80;99.90;;;;;;5015883;28;20026;-67
2023/09/28 03:21:33;;;;;;;9.73;2.53;;;20.80;99.90;;;;;;5015865;28;20030;-67
2023/09/28 03:23:59;;;;;;;9.90;3.30;;;20.70;99.90;;;;;;5015751;28;20022;-71
2023/09/28 03:26:26;;;;;;;9.43;2.95;;;20.70;99.90;;;;;;5015411;28;20037;-71
2023/09/28 03:28:52;;;;;;;13.93;3.38;;;20.70;99.90;;;;;;5015628;28;20025;-68
2023/09/28 03:31:18;;;;;;;14.88;4.20;;;20.70;99.80;;;;;;5014851;28;20033;-69
2023/09/28 03:33:43;;;;;;;14.63;3.03;;;20.70;99.70;;;;;;5014733;28;20368;-68
2023/09/28 03:36:10;;;;;;;13.93;2.88;;;20.70;99.60;;;;;;5015931;28;20517;-68
2023/09/28 03:38:35;;;;;;;17.27;3.90;;;20.70;99.60;;;;;;5015371;28;20467;-69
2023/09/28 03:41:01;;;;;;;13.00;3.92;;;20.70;99.60;;;;;;5015112;28;20018;-67
2023/09/28 03:43:26;;;;;;;18.15;3.88;;;20.60;99.60;;;;;;5015253;28;20018;-67
2023/09/28 03:45:52;;;;;;;14.27;3.25;;;20.60;99.60;;;;;;5015389;28;20379;-67
2023/09/28 03:48:17;;;;;;;17.23;3.40;;;20.60;99.60;;;;;;5015164;28;20092;-67
2023/09/28 03:50:43;;;;;;;14.93;4.00;;;20.50;99.60;;;;;;5015308;28;20025;-69
2023/09/28 03:53:09;;;;;;;18.08;4.90;;;20.60;99.50;;;;;;5015200;28;20361;-69
2023/09/28 03:55:35;;;;;;;16.75;3.67;;;20.50;99.50;;;;;;5014941;28;20033;-68
2023/09/28 03:58:01;;;;;;;20.10;3.63;;;20.50;99.50;;;;;;5015048;28;20387;-71
2023/09/28 04:00:27;;;;;;;16.10;3.50;;;20.50;99.50;;;;;;5015007;28;20052;-70
2023/09/28 04:02:53;;;;;;;15.05;3.75;;;20.40;99.60;;;;;;5014811;28;20029;-70
2023/09/28 04:05:19;;;;;;;21.20;4.32;;;20.40;99.70;;;;;;5015030;28;20030;-68
2023/09/28 04:07:45;;;;;;;16.35;4.00;;;20.40;99.70;;;;;;5014905;28;20026;-67
2023/09/28 04:10:11;;;;;;;16.02;4.05;;;20.40;99.70;;;;;;5014607;28;20033;-72
2023/09/28 04:12:37;;;;;;;21.17;5.40;;;20.40;99.90;;;;;;5014790;28;20018;-67
2023/09/28 04:15:03;;;;;;;17.45;4.38;;;20.40;99.80;;;;;;5014516;28;20033;-67
2023/09/28 04:17:30;;;;;;;21.02;5.22;;;20.40;99.80;;;;;;5014780;28;20030;-68
2023/09/28 04:19:55;;;;;;;16.08;4.05;;;20.40;99.90;;;;;;5014550;28;20046;-67
2023/09/28 04:22:21;;;;;;;21.50;5.32;;;20.30;99.90;;;;;;5014870;28;20076;-68
2023/09/28 04:24:46;;;;;;;17.90;4.78;;;20.30;99.90;;;;;;5012820;28;20084;-69
2023/09/28 04:27:12;;;;;;;21.88;4.70;;;20.30;99.90;;;;;;5014630;28;20486;-67
2023/09/28 04:29:38;;;;;;;26.48;8.55;;;20.30;99.90;;;;;;5014222;28;20084;-67
2023/09/28 04:32:04;;;;;;;21.05;5.55;;;20.30;99.90;;;;;;5013207;28;20025;-67
2023/09/28 04:34:30;;;;;;;29.65;5.70;;;20.20;99.90;;;;;;5014150;28;20061;-67
2023/09/28 04:36:57;;;;;;;26.30;5.95;;;20.20;99.90;;;;;;5014304;28;20484;-66
2023/09/28 04:39:24;;;;;;;23.98;4.80;;;20.20;99.90;;;;;;5014013;28;20518;-68
2023/09/28 04:41:54;;;;;;;21.95;5.20;;;20.20;99.90;;;;;;5014265;28;20459;-67
2023/09/28 04:44:20;;;;;;;19.63;4.72;;;20.20;99.90;;;;;;5006251;28;20109;-67
2023/09/28 04:46:46;;;;;;;18.90;5.35;;;20.20;99.90;;;;;;4992387;28;20456;-67
2023/09/28 04:49:12;;;;;;;21.90;5.22;;;20.10;99.90;;;;;;4994311;28;20037;-70
2023/09/28 04:51:38;;;;;;;29.75;4.93;;;20.10;99.90;;;;;;4994600;28;20028;-68
2023/09/28 04:54:04;;;;;;;23.55;4.50;;;20.10;99.90;;;;;;5009090;28;20034;-67
2023/09/28 04:56:31;;;;;;;22.58;5.32;;;20.10;99.90;;;;;;4994574;28;20022;-66
2023/09/28 04:58:59;;;;;;;22.25;5.25;;;20.10;99.90;;;;;;4993947;28;20030;-67
2023/09/28 05:01:25;;;;;;;23.10;5.07;;;20.10;99.90;;;;;;5004579;28;20022;-66
2023/09/28 05:03:50;;;;;;;21.75;5.38;;;20.00;99.90;;;;;;5013663;28;20398;-67
2023/09/28 05:06:16;;;;;;;22.85;5.90;;;20.00;99.90;;;;;;5013449;28;20096;-67
2023/09/28 05:08:42;;;;;;;21.90;5.47;;;20.00;99.90;;;;;;5007606;28;20030;-68
2023/09/28 05:11:08;;;;;;;20.50;4.75;;;19.90;99.90;;;;;;5009820;28;20034;-67
2023/09/28 05:13:35;;;;;;;22.75;5.28;;;19.90;99.90;;;;;;4997559;28;20554;-70
2023/09/28 05:16:01;;;;;;;23.90;5.70;;;19.90;99.90;;;;;;5004980;28;20490;-67
2023/09/28 05:18:27;;;;;;;24.17;5.38;;;19.90;99.90;;;;;;5013798;28;20060;-68
2023/09/28 05:20:53;;;;;;;26.10;5.40;;;19.90;99.90;;;;;;5013100;28;20097;-67
2023/09/28 05:23:19;;;;;;;24.30;4.97;;;19.90;99.90;;;;;;5013154;28;20541;-67
2023/09/28 05:25:44;;;;;;;18.80;5.13;;;19.80;99.90;;;;;;4999281;28;20035;-68
2023/09/28 05:28:10;;;;;;;32.15;6.85;;;19.80;99.90;;;;;;5011464;28;20022;-67
2023/09/28 05:30:36;;;;;;;26.73;6.18;;;19.90;99.90;;;;;;5011421;28;20022;-67
2023/09/28 05:33:02;;;;;;;22.95;5.78;;;19.90;99.90;;;;;;5011413;28;20030;-67
2023/09/28 05:35:29;;;;;;;19.48;4.95;;;19.90;99.90;;;;;;5008719;28;20045;-67
2023/09/28 05:37:55;;;;;;;19.27;4.95;;;19.90;99.90;;;;;;5003469;28;20050;-66
2023/09/28 05:40:21;;;;;;;16.75;4.63;;;19.90;99.90;;;;;;5008290;28;20472;-67
2023/09/28 05:42:48;;;;;;;18.98;5.30;;;19.90;99.90;;;;;;5006206;28;20025;-67
2023/09/28 05:45:14;;;;;;;20.02;4.97;;;19.90;99.90;;;;;;4993841;28;20030;-67
2023/09/28 05:47:40;;;;;;;21.55;4.95;;;20.00;99.90;;;;;;5002688;28;20018;-66
2023/09/28 05:50:11;;;;;;;19.13;4.82;;;20.00;99.90;;;;;;5011457;28;20479;-67
2023/09/28 05:52:37;;;;;;;25.27;5.45;;;20.10;99.90;;;;;;5012018;28;20026;-66
2023/09/28 05:55:02;;;;;;;19.80;4.47;;;20.10;99.90;;;;;;5007445;28;20044;-68
2023/09/28 05:57:28;;;;;;;27.90;5.97;;;20.10;99.90;;;;;;5003960;28;20113;-66
2023/09/28 05:59:54;;;;;;;19.58;5.00;;;20.10;99.90;;;;;;5007522;28;20048;-67
2023/09/28 06:02:19;;;;;;;20.13;4.63;;;20.00;99.90;;;;;;4998430;28;20081;-67
2023/09/28 06:04:45;;;;;;;19.98;4.97;;;20.00;99.90;;;;;;5003793;28;20038;-66
2023/09/28 06:07:11;;;;;;;19.40;5.10;;;20.00;99.90;;;;;;5006283;28;20048;-68
2023/09/28 06:09:38;;;;;;;20.10;5.10;;;19.90;99.90;;;;;;5006686;28;20494;-66
2023/09/28 06:12:04;;;;;;;20.40;4.72;;;20.00;99.90;;;;;;5000830;28;20014;-69
2023/09/28 06:14:29;;;;;;;23.17;5.00;;;19.90;99.90;;;;;;4997185;28;20049;-67
2023/09/28 06:16:56;;;;;;;20.42;4.85;;;19.90;99.90;;;;;;4998201;28;20547;-67
2023/09/28 06:19:21;;;;;;;25.17;4.95;;;19.90;99.90;;;;;;5002963;28;20034;-67
2023/09/28 06:21:47;;;;;;;18.13;4.43;;;19.90;99.90;;;;;;5010476;28;20558;-67
2023/09/28 06:24:13;;;;;;;16.70;4.53;;;19.90;99.90;;;;;;5003967;28;20030;-67
2023/09/28 06:26:38;;;;;;;25.10;5.10;;;19.90;99.90;;;;;;5013202;28;20061;-67
2023/09/28 06:29:04;;;;;;;22.40;5.18;;;19.90;99.90;;;;;;5013603;28;20475;-68
2023/09/28 06:31:30;;;;;;;18.73;4.68;;;19.90;99.90;;;;;;5014083;28;20097;-68
2023/09/28 06:33:56;;;;;;;23.77;5.13;;;19.90;99.90;;;;;;5012629;28;20372;-67
2023/09/28 06:36:25;;;;;;;25.85;5.40;;;19.90;99.90;;;;;;5005350;28;20057;-68
2023/09/28 06:38:51;;;;;;;21.40;5.38;;;19.90;99.90;;;;;;5011964;28;20040;-66
2023/09/28 06:41:17;;;;;;;16.63;4.80;;;19.90;99.90;;;;;;5014355;28;20033;-68
2023/09/28 06:43:43;;;;;;;18.38;4.72;;;20.00;99.90;;;;;;5015432;28;20021;-67
2023/09/28 06:46:09;;;;;;;17.70;4.65;;;20.00;99.90;;;;;;5014270;28;20060;-66
2023/09/28 06:48:35;;;;;;;17.65;4.25;;;20.00;99.90;;;;;;5027107;28;20032;-66
2023/09/28 06:51:01;;;;;;;20.70;5.20;;;20.00;99.90;;;;;;5025982;28;20479;-66
2023/09/28 06:53:27;;;;;;;22.50;5.13;;;20.00;99.90;;;;;;5012332;28;20538;-65
2023/09/28 06:55:54;;;;;;;19.38;4.75;;;20.00;99.90;;;;;;5006137;28;20033;-66
2023/09/28 06:58:20;;;;;;;24.75;4.63;;;20.00;99.90;;;;;;5012468;28;20057;-66
2023/09/28 07:00:46;;;;;;;22.00;5.70;;;20.00;99.90;;;;;;5016096;28;20029;-68
2023/09/28 07:03:13;;;;;;;19.15;4.90;;;20.00;99.90;;;;;;5015648;28;20028;-67
2023/09/28 07:05:40;;;;;;;23.60;5.45;;;20.10;99.90;;;;;;4999448;28;20070;-67
2023/09/28 07:08:06;;;;;;;26.75;5.88;;;20.10;99.90;;;;;;5002489;28;20027;-65
2023/09/28 07:10:33;;;;;;;17.90;4.82;;;20.10;99.90;;;;;;5014580;28;20030;-66
2023/09/28 07:13:05;;;;;;;19.30;5.07;;;20.00;99.90;;;;;;5008880;28;20030;-66
2023/09/28 07:15:31;;;;;;;18.58;4.25;;;20.10;99.90;;;;;;5026585;28;20034;-66
2023/09/28 07:17:57;;;;;;;19.58;4.65;;;20.10;99.90;;;;;;5007991;28;20033;-67
2023/09/28 07:20:26;;;;;;;22.70;5.57;;;20.10;99.90;;;;;;5001527;28;20029;-67
2023/09/28 07:22:51;;;;;;;19.92;5.40;;;20.10;99.90;;;;;;5010410;28;20045;-67
2023/09/28 07:25:18;;;;;;;18.85;4.55;;;20.10;99.90;;;;;;5004121;28;20034;-67
2023/09/28 07:27:45;;;;;;;20.52;4.72;;;20.10;99.90;;;;;;5007044;28;20022;-66
2023/09/28 07:30:12;;;;;;;21.88;4.80;;;20.10;99.90;;;;;;5011266;28;20034;-66
2023/09/28 07:32:38;;;;;;;19.70;4.75;;;20.10;99.90;;;;;;5011251;28;20050;-69
2023/09/28 07:35:04;;;;;;;20.67;4.90;;;20.10;99.90;;;;;;4999097;28;20069;-65
2023/09/28 07:37:32;;;;;;;22.90;5.05;;;20.10;99.90;;;;;;5015037;28;20021;-66
2023/09/28 07:39:58;;;;;;;16.20;3.72;;;20.10;99.90;;;;;;5015131;28;20026;-66
2023/09/28 07:42:24;;;;;;;16.17;4.30;;;20.10;99.90;;;;;;5009996;28;20101;-66
2023/09/28 07:44:53;;;;;;;27.42;4.85;;;20.10;99.90;;;;;;5019726;28;20100;-66
2023/09/28 07:47:19;;;;;;;19.15;5.05;;;20.10;99.90;;;;;;5006539;28;20023;-66
2023/09/28 07:49:46;;;;;;;22.00;4.82;;;20.10;99.90;;;;;;5012566;28;20479;-66
2023/09/28 07:52:12;;;;;;;16.38;4.93;;;20.10;99.90;;;;;;5006901;28;20038;-66
2023/09/28 07:54:37;;;;;;;21.48;5.57;;;20.20;99.90;;;;;;5012719;28;20387;-67
2023/09/28 07:57:04;;;;;;;15.65;4.43;;;20.10;99.90;;;;;;5010016;28;20495;-66
2023/09/28 07:59:36;;;;;;;25.25;5.20;;;20.20;99.90;;;;;;4995187;28;20112;-69
2023/09/28 08:02:04;;;;;;;21.40;5.03;;;20.20;99.90;;;;;;5003528;28;20026;-64
2023/09/28 08:04:30;;;;;;;22.27;5.18;;;20.10;99.90;;;;;;5001478;28;20500;-67
2023/09/28 08:06:57;;;;;;;22.42;4.78;;;20.20;99.90;;;;;;5007816;28;20033;-69
2023/09/28 08:09:23;;;;;;;16.55;4.57;;;20.20;99.90;;;;;;5012364;28;20038;-68
2023/09/28 08:11:49;;;;;;;18.60;4.40;;;20.20;99.90;;;;;;5012838;28;20151;-68
2023/09/28 08:14:18;;;;;;;26.15;5.85;;;20.20;99.90;;;;;;5008154;28;20076;-67
2023/09/28 08:16:45;;;;;;;19.27;4.38;;;20.20;99.90;;;;;;5010529;28;20022;-68
2023/09/28 08:19:11;;;;;;;22.52;5.43;;;20.20;99.90;;;;;;5010582;28;20038;-68
2023/09/28 08:21:38;;;;;;;18.60;4.13;;;20.30;99.90;;;;;;5000303;28;20026;-67
2023/09/28 08:24:05;;;;;;;21.92;3.92;;;20.30;99.90;;;;;;4995514;28;20026;-67
2023/09/28 08:26:31;;;;;;;18.70;4.00;;;20.30;99.90;;;;;;5005623;28;20029;-68
2023/09/28 08:28:58;;;;;;;21.20;4.07;;;20.30;99.90;;;;;;5009702;28;20041;-67
2023/09/28 08:31:24;;;;;;;17.63;3.63;;;20.40;99.90;;;;;;4994183;28;20105;-66
2023/09/28 08:33:50;;;;;;;18.30;4.13;;;20.40;99.90;;;;;;4994940;28;20046;-67
2023/09/28 08:36:16;;;;;;;22.48;3.95;;;20.40;99.90;;;;;;4996465;28;20023;-67
2023/09/28 08:38:42;;;;;;;17.23;4.47;;;20.40;99.90;;;;;;5004677;28;20064;-67
2023/09/28 08:41:09;;;;;;;17.90;4.68;;;20.40;99.90;;;;;;5008862;28;20541;-67
2023/09/28 08:43:47;;;;;;;14.68;3.55;;;20.40;99.90;;;;;;5013304;28;20018;-66
2023/09/28 08:46:14;;;;;;;17.60;4.35;;;20.50;99.90;;;;;;5003175;28;20353;-66
2023/09/28 08:48:47;;;;;;;22.25;4.35;;;20.50;99.90;;;;;;5001119;28;20442;-67
2023/09/28 08:51:13;;;;;;;20.05;4.07;;;20.50;99.90;;;;;;4994907;28;20113;-66
2023/09/28 08:53:40;;;;;;;16.67;4.32;;;20.50;99.90;;;;;;4995839;28;20026;-69
2023/09/28 08:56:07;;;;;;;15.65;4.05;;;20.50;99.90;;;;;;4994412;28;20038;-72
2023/09/28 08:58:36;;;;;;;16.65;4.28;;;20.50;99.90;;;;;;4993980;28;20018;-67
2023/09/28 09:01:03;;;;;;;15.85;3.42;;;20.60;99.90;;;;;;5013444;28;20062;-68
2023/09/28 09:03:31;;;;;;;23.60;4.88;;;20.50;99.90;;;;;;4996853;28;20109;-69
2023/09/28 09:05:57;;;;;;;15.88;3.85;;;20.60;99.90;;;;;;5001800;28;20034;-69
2023/09/28 09:08:25;;;;;;;14.77;4.30;;;20.60;99.90;;;;;;5012669;28;20025;-67
2023/09/28 09:10:52;;;;;;;20.90;4.75;;;20.60;99.90;;;;;;4995497;28;20029;-67
2023/09/28 09:13:20;;;;;;;16.80;4.10;;;20.60;99.90;;;;;;4997020;28;20019;-68
2023/09/28 09:15:45;;;;;;;15.35;3.38;;;20.60;99.90;;;;;;4999303;28;20022;-67
2023/09/28 09:18:18;;;;;;;25.55;4.65;;;20.70;99.90;;;;;;5013797;28;20439;-67
2023/09/28 09:20:46;;;;;;;16.77;3.92;;;20.70;99.90;;;;;;5013691;28;20113;-67
2023/09/28 09:23:13;;;;;;;18.75;3.60;;;20.70;99.90;;;;;;5007528;28;20093;-67
2023/09/28 09:25:47;;;;;;;18.20;3.97;;;20.70;99.90;;;;;;4994169;28;20033;-68
2023/09/28 09:28:26;;;;;;;31.08;5.25;;;20.70;99.90;;;;;;5005903;28;20140;-69
2023/09/28 09:30:52;;;;;;;25.67;4.97;;;20.70;99.90;;;;;;5008039;28;20037;-67
2023/09/28 09:33:18;;;;;;;26.73;5.88;;;20.80;99.90;;;;;;5004246;28;20105;-67
2023/09/28 09:35:44;;;;;;;33.22;6.55;;;20.80;99.90;;;;;;5001489;28;20065;-68
2023/09/28 09:38:09;;;;;;;38.20;7.05;;;20.80;99.90;;;;;;5013500;28;20089;-68
2023/09/28 09:40:35;;;;;;;35.03;6.63;;;20.80;99.90;;;;;;5006953;28;20058;-67
2023/09/28 09:43:08;;;;;;;33.85;6.57;;;20.90;99.90;;;;;;5003984;28;20026;-68
2023/09/28 09:45:40;;;;;;;29.52;6.00;;;20.90;99.90;;;;;;4996496;28;20025;-69
2023/09/28 09:48:06;;;;;;;34.88;6.32;;;20.90;99.90;;;;;;5008060;28;20015;-68
2023/09/28 09:50:35;;;;;;;29.67;5.63;;;20.90;99.90;;;;;;4993672;28;20077;-68
2023/09/28 09:53:04;;;;;;;33.20;6.40;;;20.90;99.90;;;;;;5004868;28;20868;-72
2023/09/28 09:55:31;;;;;;;27.42;6.28;;;21.00;99.90;;;;;;5009319;28;20038;-68
2023/09/28 09:58:01;;;;;;;24.85;5.60;;;20.90;99.90;;;;;;4996196;28;20025;-68
2023/09/28 10:00:33;;;;;;;29.17;6.05;;;21.00;99.90;;;;;;4993495;28;20042;-68
2023/09/28 10:03:00;;;;;;;25.50;4.50;;;21.00;99.90;;;;;;5003452;28;20022;-68
2023/09/28 10:05:27;;;;;;;23.58;5.68;;;21.00;99.90;;;;;;5012684;28;20029;-69
2023/09/28 10:07:55;;;;;;;23.25;4.78;;;21.00;99.90;;;;;;5001575;28;20114;-68
2023/09/28 10:10:22;;;;;;;22.63;5.18;;;21.00;99.90;;;;;;5010138;28;20391;-67
2023/09/28 10:12:49;;;;;;;20.17;4.40;;;21.00;99.90;;;;;;4994488;28;20014;-68
2023/09/28 10:15:16;;;;;;;18.85;4.43;;;21.10;99.90;;;;;;4994355;28;20510;-67
2023/09/28 10:17:43;;;;;;;20.05;4.60;;;21.10;99.90;;;;;;4996273;28;20113;-68
2023/09/28 10:20:09;;;;;;;15.50;4.00;;;21.10;99.90;;;;;;5003720;28;20033;-67
2023/09/28 10:22:35;;;;;;;16.02;3.92;;;21.10;99.90;;;;;;5000649;28;20022;-68
2023/09/28 10:25:00;;;;;;;13.70;3.70;;;21.10;99.90;;;;;;5005538;28;20049;-71
2023/09/28 10:27:26;;;;;;;16.02;4.10;;;21.10;99.90;;;;;;4994938;28;20498;-70
2023/09/28 10:30:19;;;;;;;14.05;3.50;;;21.00;99.90;;;;;;5004399;28;20026;-68
2023/09/28 10:32:45;;;;;;;12.43;3.20;;;21.10;99.90;;;;;;5010561;28;20375;-71
2023/09/28 10:35:28;;;;;;;13.88;3.33;;;21.10;99.90;;;;;;5000874;28;20491;-72
2023/09/28 10:38:20;;;;;;;10.80;3.30;;;21.10;99.90;;;;;;5003925;28;20037;-68
2023/09/28 10:41:02;;;;;;;24.10;3.92;;;21.10;99.90;;;;;;4998508;28;20036;-68
2023/09/28 10:43:29;;;;;;;31.75;4.68;;;21.10;99.90;;;;;;5011953;28;20022;-67
2023/09/28 10:45:57;;;;;;;40.05;7.00;;;21.10;99.90;;;;;;5021797;28;20021;-71
2023/09/28 10:48:23;;;;;;;40.65;6.35;;;21.20;99.90;;;;;;5016912;28;20026;-68
2023/09/28 10:50:52;;;;;;;25.35;4.93;;;21.20;99.90;;;;;;5004514;28;20518;-69
2023/09/28 10:53:18;;;;;;;31.88;5.07;;;21.20;99.90;;;;;;5014201;28;20025;-69
2023/09/28 10:55:44;;;;;;;30.45;6.03;;;21.20;99.90;;;;;;5012157;28;20033;-69
2023/09/28 10:58:11;;;;;;;22.70;4.97;;;21.20;99.90;;;;;;5013134;28;20018;-72
2023/09/28 11:00:37;;;;;;;24.20;4.78;;;21.20;99.90;;;;;;5013654;28;20029;-69
2023/09/28 11:03:04;;;;;;;22.75;4.25;;;21.20;99.90;;;;;;5013796;28;20025;-69
2023/09/28 11:05:30;;;;;;;21.40;4.43;;;21.30;99.90;;;;;;5013758;28;20037;-69
2023/09/28 11:07:59;;;;;;;15.57;3.67;;;21.30;99.90;;;;;;5014102;28;20034;-70
2023/09/28 11:10:25;;;;;;;22.45;4.00;;;21.30;99.90;;;;;;5015470;28;20026;-71
2023/09/28 11:12:50;;;;;;;20.80;3.83;;;21.30;99.90;;;;;;5015986;28;20431;-69
2023/09/28 11:15:16;;;;;;;20.00;3.92;;;21.30;99.90;;;;;;5015856;28;20041;-70
2023/09/28 11:17:42;;;;;;;18.92;3.92;;;21.30;99.90;;;;;;5015787;28;20058;-69
2023/09/28 11:20:11;;;;;;;14.10;3.47;;;21.30;99.60;;;;;;5015973;28;20021;-69
2023/09/28 11:22:37;;;;;;;12.73;3.67;;;21.30;99.60;;;;;;5015806;28;20387;-69
2023/09/28 11:25:04;;;;;;;11.82;2.85;;;21.30;99.70;;;;;;5015597;28;20032;-69
2023/09/28 11:27:30;;;;;;;15.23;3.10;;;21.40;99.30;;;;;;5015667;28;20029;-72
2023/09/28 11:29:56;;;;;;;16.02;3.15;;;21.40;99.50;;;;;;5015683;28;20459;-69
2023/09/28 11:32:22;;;;;;;10.25;3.63;;;21.40;99.60;;;;;;5015531;28;20018;-69
2023/09/28 11:34:48;;;;;;;14.38;3.58;;;21.40;99.60;;;;;;5015285;28;20133;-72
2023/09/28 11:37:16;;;;;;;19.67;3.75;;;21.40;99.70;;;;;;5015280;28;20033;-70
2023/09/28 11:39:42;;;;;;;15.20;2.90;;;21.40;99.70;;;;;;5015412;28;20072;-69
2023/09/28 11:42:08;;;;;;;16.35;3.03;;;21.50;99.70;;;;;;5030644;28;20026;-69
2023/09/28 11:44:36;;;;;;;11.57;3.22;;;21.50;99.50;;;;;;5014115;28;20031;-69
2023/09/28 11:47:04;;;;;;;14.15;3.90;;;21.50;99.50;;;;;;5015348;28;20101;-70
2023/09/28 11:49:30;;;;;;;16.88;3.38;;;21.50;99.50;;;;;;5015147;28;20491;-69
2023/09/28 11:51:55;;;;;;;11.57;2.95;;;21.50;99.50;;;;;;5015318;28;20034;-69
2023/09/28 11:54:22;;;;;;;10.45;3.13;;;21.50;99.40;;;;;;5013599;28;20030;-69
2023/09/28 11:56:48;;;;;;;11.38;3.22;;;21.50;99.30;;;;;;5013821;28;20112;-69
2023/09/28 11:59:17;;;;;;;12.27;3.15;;;21.50;99.20;;;;;;5015110;28;20024;-69
2023/09/28 12:01:43;;;;;;;15.00;2.83;;;21.50;99.30;;;;;;5015099;28;20032;-69
2023/09/28 12:04:09;;;;;;;12.32;2.88;;;21.60;99.20;;;;;;5014635;28;20430;-69
2023/09/28 12:06:35;;;;;;;11.35;2.45;;;21.60;99.20;;;;;;5014852;28;20105;-70
2023/09/28 12:09:02;;;;;;;11.05;2.75;;;21.60;99.20;;;;;;5014624;28;20019;-72
2023/09/28 12:11:27;;;;;;;9.77;2.80;;;21.60;99.20;;;;;;5014853;28;20050;-72
2023/09/28 12:13:53;;;;;;;11.63;2.42;;;21.60;99.10;;;;;;5014619;28;20056;-70
2023/09/28 12:16:22;;;;;;;14.20;3.45;;;21.60;99.10;;;;;;5014599;28;20569;-72
2023/09/28 12:18:48;;;;;;;10.95;2.50;;;21.60;98.90;;;;;;5014682;28;20072;-71
2023/09/28 12:21:14;;;;;;;7.60;2.63;;;21.60;99.10;;;;;;5014745;28;20034;-73
2023/09/28 12:23:40;;;;;;;16.17;3.67;;;21.70;99.10;;;;;;5014172;28;20066;-69
2023/09/28 12:26:06;;;;;;;9.63;2.63;;;21.70;99.00;;;;;;5014644;28;20018;-69
2023/09/28 12:28:31;;;;;;;7.97;2.97;;;21.70;98.90;;;;;;5014467;28;20080;-69
2023/09/28 12:30:58;;;;;;;11.63;3.10;;;21.70;99.00;;;;;;5014282;28;20030;-69
2023/09/28 12:33:24;;;;;;;9.43;2.50;;;21.70;98.90;;;;;;5014197;28;20024;-69
2023/09/28 12:35:50;;;;;;;9.88;3.25;;;21.70;98.80;;;;;;5014353;28;20372;-70
2023/09/28 12:38:16;;;;;;;7.80;2.65;;;21.70;98.80;;;;;;5014150;28;20470;-71
2023/09/28 12:40:42;;;;;;;14.25;3.28;;;21.80;98.90;;;;;;5002253;28;20034;-72